createdAt,value
2017-06-15T00:00:52.838Z,0
2017-06-15T00:02:05.058Z,0
2017-06-15T00:03:17.276Z,0
2017-06-15T00:04:29.836Z,0
2017-06-15T00:05:42.065Z,0
2017-06-15T00:06:54.614Z,0
2017-06-15T00:08:06.824Z,0
2017-06-15T00:09:19.048Z,0
2017-06-15T00:10:31.598Z,0
2017-06-15T00:11:44.145Z,0
2017-06-15T00:12:56.665Z,0
2017-06-15T00:14:08.587Z,0
2017-06-15T00:15:21.124Z,0
2017-06-15T00:16:33.680Z,0
2017-06-15T00:17:46.225Z,0
2017-06-15T00:18:58.454Z,0
2017-06-15T00:20:10.994Z,0
2017-06-15T00:21:23.515Z,0
2017-06-15T00:22:36.054Z,0
2017-06-15T00:23:48.599Z,0
2017-06-15T00:25:01.117Z,0
2017-06-15T00:26:13.638Z,0
2017-06-15T00:27:25.845Z,0
2017-06-15T00:28:38.087Z,0
2017-06-15T00:29:50.611Z,0
2017-06-15T00:31:03.153Z,0
2017-06-15T00:32:15.978Z,0
2017-06-15T00:33:28.551Z,0
2017-06-15T00:34:41.095Z,0
2017-06-15T00:35:53.612Z,0
2017-06-15T00:37:06.162Z,0
2017-06-15T00:38:18.700Z,0
2017-06-15T00:39:30.943Z,0
2017-06-15T00:40:43.471Z,0
2017-06-15T00:41:55.992Z,0
2017-06-15T00:43:08.818Z,0
2017-06-15T00:44:21.037Z,0
2017-06-15T00:45:33.583Z,0
2017-06-15T00:46:46.126Z,0
2017-06-15T00:47:58.642Z,0
2017-06-15T00:49:11.167Z,0
2017-06-15T00:50:23.689Z,0
2017-06-15T00:51:36.234Z,0
2017-06-15T00:52:48.461Z,0
2017-06-15T00:54:00.697Z,0
2017-06-15T00:55:13.213Z,0
2017-06-15T00:56:25.468Z,0
2017-06-15T00:57:38.013Z,0
2017-06-15T00:58:50.539Z,0
2017-06-15T01:00:02.462Z,0
2017-06-15T01:01:14.996Z,0
2017-06-15T01:02:27.523Z,0
2017-06-15T01:03:40.035Z,0
2017-06-15T01:04:52.267Z,0
2017-06-15T01:06:04.789Z,0
2017-06-15T01:07:17.009Z,0
2017-06-15T01:08:29.530Z,0
2017-06-15T01:09:41.754Z,0
2017-06-15T01:10:54.272Z,0
2017-06-15T01:12:06.873Z,0
2017-06-15T01:13:19.427Z,0
2017-06-15T01:14:31.959Z,0
2017-06-15T01:15:44.181Z,0
2017-06-15T01:16:56.726Z,0
2017-06-15T01:18:09.262Z,0
2017-06-15T01:19:21.493Z,0
2017-06-15T01:20:34.036Z,0
2017-06-15T01:21:46.557Z,0
2017-06-15T01:22:59.070Z,0
2017-06-15T01:24:11.595Z,0
2017-06-15T01:25:24.125Z,0
2017-06-15T01:26:36.940Z,0
2017-06-15T01:27:49.461Z,0
2017-06-15T01:29:01.653Z,0
2017-06-15T01:30:14.177Z,0
2017-06-15T01:31:26.401Z,0
2017-06-15T01:32:38.648Z,0
2017-06-15T01:33:50.891Z,0
2017-06-15T01:35:03.432Z,0
2017-06-15T01:36:15.982Z,0
2017-06-15T01:37:28.479Z,0
2017-06-15T01:38:40.976Z,0
2017-06-15T01:39:53.495Z,0
2017-06-15T01:41:05.998Z,0
2017-06-15T01:42:18.530Z,0
2017-06-15T01:43:31.088Z,0
2017-06-15T01:44:43.610Z,0
2017-06-15T01:45:55.845Z,0
2017-06-15T01:47:08.075Z,0
2017-06-15T01:48:20.013Z,0
2017-06-15T01:49:32.541Z,0
2017-06-15T01:50:44.790Z,0
2017-06-15T01:51:57.347Z,0
2017-06-15T01:53:09.885Z,4
2017-06-15T01:54:22.416Z,4
2017-06-15T01:55:34.619Z,4
2017-06-15T01:56:47.143Z,0
2017-06-15T01:57:59.087Z,0
2017-06-15T01:59:11.908Z,4
2017-06-15T02:00:24.456Z,4
2017-06-15T02:01:36.972Z,4
2017-06-15T02:02:49.493Z,4
2017-06-15T02:04:01.714Z,8
2017-06-15T02:05:13.910Z,4
2017-06-15T02:06:26.430Z,8
2017-06-15T02:07:38.969Z,8
2017-06-15T02:08:51.501Z,12
2017-06-15T02:10:04.018Z,12
2017-06-15T02:11:15.944Z,12
2017-06-15T02:12:28.452Z,12
2017-06-15T02:13:40.977Z,16
2017-06-15T02:14:53.495Z,20
2017-06-15T02:16:06.018Z,20
2017-06-15T02:17:18.243Z,24
2017-06-15T02:18:30.785Z,28
2017-06-15T02:19:43.310Z,32
2017-06-15T02:20:55.811Z,36
2017-06-15T02:22:08.348Z,40
2017-06-15T02:23:20.879Z,48
2017-06-15T02:24:33.428Z,52
2017-06-15T02:25:45.669Z,56
2017-06-15T02:26:58.191Z,68
2017-06-15T02:28:10.142Z,72
2017-06-15T02:29:22.682Z,84
2017-06-15T02:30:35.226Z,92
2017-06-15T02:31:47.720Z,104
2017-06-15T02:33:00.241Z,116
2017-06-15T02:34:12.169Z,128
2017-06-15T02:35:24.413Z,144
2017-06-15T02:36:36.949Z,156
2017-06-15T02:37:48.877Z,172
2017-06-15T02:39:01.416Z,188
2017-06-15T02:40:13.969Z,204
2017-06-15T02:41:26.512Z,224
2017-06-15T02:42:39.062Z,240
2017-06-15T02:43:51.585Z,260
2017-06-15T02:45:04.142Z,280
2017-06-15T02:46:16.717Z,304
2017-06-15T02:47:29.270Z,324
2017-06-15T02:48:41.814Z,352
2017-06-15T02:49:54.353Z,376
2017-06-15T02:51:06.878Z,400
2017-06-15T02:52:19.100Z,424
2017-06-15T02:53:31.653Z,452
2017-06-15T02:54:44.184Z,480
2017-06-15T02:55:56.737Z,512
2017-06-15T02:57:08.954Z,540
2017-06-15T02:58:21.180Z,572
2017-06-15T02:59:33.705Z,604
2017-06-15T03:00:46.250Z,632
2017-06-15T03:01:58.784Z,660
2017-06-15T03:03:11.309Z,696
2017-06-15T03:04:24.138Z,728
2017-06-15T03:05:36.659Z,764
2017-06-15T03:06:49.211Z,796
2017-06-15T03:08:01.767Z,844
2017-06-15T03:09:14.285Z,888
2017-06-15T03:10:26.815Z,936
2017-06-15T03:11:39.026Z,984
2017-06-15T03:12:51.248Z,1024
2017-06-15T03:14:03.777Z,1064
2017-06-15T03:15:16.300Z,1104
2017-06-15T03:16:28.835Z,1148
2017-06-15T03:17:41.356Z,1200
2017-06-15T03:18:53.930Z,1252
2017-06-15T03:20:06.459Z,1308
2017-06-15T03:21:18.680Z,1364
2017-06-15T03:22:30.920Z,1432
2017-06-15T03:23:43.444Z,1504
2017-06-15T03:24:55.990Z,1572
2017-06-15T03:26:08.536Z,1636
2017-06-15T03:27:20.754Z,1696
2017-06-15T03:28:32.677Z,1752
2017-06-15T03:29:45.201Z,1804
2017-06-15T03:30:57.422Z,1856
2017-06-15T03:32:09.644Z,1920
2017-06-15T03:33:22.179Z,1992
2017-06-15T03:34:34.424Z,2056
2017-06-15T03:35:46.356Z,2100
2017-06-15T03:36:58.892Z,2152
2017-06-15T03:38:11.140Z,2200
2017-06-15T03:39:23.694Z,2232
2017-06-15T03:40:35.911Z,2272
2017-06-15T03:41:48.409Z,2340
2017-06-15T03:43:00.933Z,2412
2017-06-15T03:44:13.449Z,2468
2017-06-15T03:45:25.974Z,2544
2017-06-15T03:46:38.520Z,2708
2017-06-15T03:47:51.042Z,2968
2017-06-15T03:49:03.563Z,3240
2017-06-15T03:50:16.099Z,3464
2017-06-15T03:51:28.625Z,3672
2017-06-15T03:52:41.123Z,3920
2017-06-15T03:53:53.641Z,4128
2017-06-15T03:55:06.162Z,4200
2017-06-15T03:56:18.658Z,4232
2017-06-15T03:57:31.198Z,4292
2017-06-15T03:58:43.706Z,4248
2017-06-15T03:59:55.950Z,4220
2017-06-15T04:01:08.484Z,4368
2017-06-15T04:02:21.012Z,4540
2017-06-15T04:03:33.234Z,4612
2017-06-15T04:04:45.755Z,4636
2017-06-15T04:05:58.267Z,4604
2017-06-15T04:07:10.503Z,4572
2017-06-15T04:08:22.718Z,4540
2017-06-15T04:09:34.956Z,4564
2017-06-15T04:10:47.505Z,4668
2017-06-15T04:11:59.734Z,4848
2017-06-15T04:13:11.976Z,5052
2017-06-15T04:14:24.500Z,5300
2017-06-15T04:15:37.046Z,5500
2017-06-15T04:16:49.564Z,5688
2017-06-15T04:18:02.091Z,5904
2017-06-15T04:19:14.335Z,6152
2017-06-15T04:20:26.868Z,6436
2017-06-15T04:21:39.408Z,6740
2017-06-15T04:22:51.919Z,7056
2017-06-15T04:24:04.445Z,7364
2017-06-15T04:25:16.986Z,7604
2017-06-15T04:26:29.806Z,7708
2017-06-15T04:27:42.352Z,7752
2017-06-15T04:28:54.873Z,7788
2017-06-15T04:30:07.094Z,7828
2017-06-15T04:31:19.615Z,7792
2017-06-15T04:32:32.132Z,7624
2017-06-15T04:33:44.657Z,7308
2017-06-15T04:34:57.195Z,6720
2017-06-15T04:36:09.723Z,5960
2017-06-15T04:37:22.266Z,5192
2017-06-15T04:38:34.794Z,4736
2017-06-15T04:39:47.011Z,4412
2017-06-15T04:40:59.536Z,4016
2017-06-15T04:42:12.078Z,3800
2017-06-15T04:43:24.578Z,3696
2017-06-15T04:44:36.520Z,3656
2017-06-15T04:45:48.744Z,3536
2017-06-15T04:47:01.287Z,3316
2017-06-15T04:48:13.504Z,3332
2017-06-15T04:49:26.048Z,3444
2017-06-15T04:50:38.600Z,3620
2017-06-15T04:51:51.167Z,3880
2017-06-15T04:53:03.992Z,4064
2017-06-15T04:54:16.494Z,4252
2017-06-15T04:55:29.038Z,4356
2017-06-15T04:56:41.554Z,4416
2017-06-15T04:57:54.078Z,4376
2017-06-15T04:59:06.621Z,4352
2017-06-15T05:00:18.866Z,4396
2017-06-15T05:01:31.390Z,4448
2017-06-15T05:02:43.929Z,4520
2017-06-15T05:03:56.757Z,4592
2017-06-15T05:05:09.280Z,5052
2017-06-15T05:06:21.822Z,6288
2017-06-15T05:07:34.364Z,11480
2017-06-15T05:08:46.892Z,13360
2017-06-15T05:09:59.115Z,8304
2017-06-15T05:11:11.355Z,9680
2017-06-15T05:12:23.904Z,12476
2017-06-15T05:13:36.175Z,9448
2017-06-15T05:14:48.721Z,11244
2017-06-15T05:16:01.257Z,14608
2017-06-15T05:17:13.786Z,15156
2017-06-15T05:18:26.324Z,21088
2017-06-15T05:19:38.855Z,26368
2017-06-15T05:20:51.401Z,21376
2017-06-15T05:22:03.967Z,19744
2017-06-15T05:23:16.181Z,16480
2017-06-15T05:24:28.691Z,18144
2017-06-15T05:25:41.224Z,39200
2017-06-15T05:26:53.772Z,47936
2017-06-15T05:28:06.300Z,43488
2017-06-15T05:29:18.819Z,36448
2017-06-15T05:30:31.362Z,45344
2017-06-15T05:31:43.931Z,33440
2017-06-15T05:32:56.482Z,19232
2017-06-15T05:34:09.027Z,9180
2017-06-15T05:35:21.252Z,7748
2017-06-15T05:36:33.496Z,9064
2017-06-15T05:37:46.016Z,9024
2017-06-15T05:38:58.228Z,15984
2017-06-15T05:40:10.457Z,17504
2017-06-15T05:41:22.995Z,7472
2017-06-15T05:42:35.249Z,6308
2017-06-15T05:43:47.477Z,6044
2017-06-15T05:45:00.033Z,5912
2017-06-15T05:46:12.301Z,5852
2017-06-15T05:47:24.533Z,5700
2017-06-15T05:48:37.074Z,5672
2017-06-15T05:49:49.302Z,5792
2017-06-15T05:51:01.830Z,6764
2017-06-15T05:52:14.370Z,7724
2017-06-15T05:53:26.893Z,6556
2017-06-15T05:54:39.426Z,5988
2017-06-15T05:55:51.939Z,6164
2017-06-15T05:57:03.894Z,6684
2017-06-15T05:58:15.824Z,7724
2017-06-15T05:59:28.056Z,8032
2017-06-15T06:00:40.568Z,8148
2017-06-15T06:01:53.109Z,8532
2017-06-15T06:03:05.633Z,9956
2017-06-15T06:04:18.178Z,9576
2017-06-15T06:05:30.724Z,10556
2017-06-15T06:06:43.245Z,9820
2017-06-15T06:07:55.782Z,18592
2017-06-15T06:09:08.009Z,16612
2017-06-15T06:10:20.550Z,16720
2017-06-15T06:11:33.096Z,20224
2017-06-15T06:12:45.625Z,13188
2017-06-15T06:13:58.170Z,12252
2017-06-15T06:15:10.731Z,12356
2017-06-15T06:16:22.959Z,13408
2017-06-15T06:17:35.533Z,15032
2017-06-15T06:18:48.097Z,45856
2017-06-15T06:20:00.950Z,65440
2017-06-15T06:21:12.920Z,69472
2017-06-15T06:22:25.156Z,63584
2017-06-15T06:23:37.660Z,62720
2017-06-15T06:24:49.882Z,65312
2017-06-15T06:26:02.405Z,60256
2017-06-15T06:27:14.947Z,60896
2017-06-15T06:28:27.169Z,48160
2017-06-15T06:29:39.708Z,33888
2017-06-15T06:30:51.938Z,46496
2017-06-15T06:32:04.484Z,62336
2017-06-15T06:33:16.730Z,69376
2017-06-15T06:34:28.678Z,49760
2017-06-15T06:35:41.237Z,51136
2017-06-15T06:36:53.494Z,62624
2017-06-15T06:38:06.039Z,60960
2017-06-15T06:39:18.602Z,62624
2017-06-15T06:40:30.855Z,60704
2017-06-15T06:41:43.378Z,55968
2017-06-15T06:42:55.923Z,55712
2017-06-15T06:44:08.462Z,41888
2017-06-15T06:45:21.011Z,35968
2017-06-15T06:46:33.258Z,35200
2017-06-15T06:47:45.778Z,37664
2017-06-15T06:48:58.302Z,37088
2017-06-15T06:50:10.550Z,37568
2017-06-15T06:51:22.795Z,38560
2017-06-15T06:52:35.339Z,41344
2017-06-15T06:53:47.562Z,44288
2017-06-15T06:54:59.504Z,50784
2017-06-15T06:56:12.054Z,56192
2017-06-15T06:57:24.619Z,57632
2017-06-15T06:58:36.884Z,61760
2017-06-15T06:59:49.415Z,67200
2017-06-15T07:01:01.379Z,68384
2017-06-15T07:02:13.609Z,61856
2017-06-15T07:03:25.828Z,61056
2017-06-15T07:04:38.392Z,58624
2017-06-15T07:05:50.626Z,51168
2017-06-15T07:07:02.865Z,55648
2017-06-15T07:08:15.088Z,57344
2017-06-15T07:09:27.672Z,58720
2017-06-15T07:10:40.229Z,60608
2017-06-15T07:11:52.150Z,61696
2017-06-15T07:13:04.717Z,61504
2017-06-15T07:14:17.263Z,61952
2017-06-15T07:15:29.813Z,62304
2017-06-15T07:16:42.355Z,63488
2017-06-15T07:17:54.901Z,69536
2017-06-15T07:19:07.450Z,71680
2017-06-15T07:20:19.694Z,62016
2017-06-15T07:21:32.239Z,59168
2017-06-15T07:22:44.760Z,64832
2017-06-15T07:23:57.009Z,64928
2017-06-15T07:25:09.548Z,63072
2017-06-15T07:26:21.798Z,63936
2017-06-15T07:27:34.368Z,62304
2017-06-15T07:28:46.917Z,58272
2017-06-15T07:29:59.163Z,56288
2017-06-15T07:31:11.749Z,59776
2017-06-15T07:32:23.977Z,59872
2017-06-15T07:33:36.544Z,58400
2017-06-15T07:34:48.774Z,56576
2017-06-15T07:36:01.318Z,56608
2017-06-15T07:37:13.578Z,59296
2017-06-15T07:38:26.148Z,56000
2017-06-15T07:39:38.684Z,61312
2017-06-15T07:40:50.927Z,65120
2017-06-15T07:42:03.469Z,65088
2017-06-15T07:43:15.408Z,62336
2017-06-15T07:44:27.940Z,62944
2017-06-15T07:45:40.208Z,65632
2017-06-15T07:46:52.773Z,58976
2017-06-15T07:48:05.303Z,58656
2017-06-15T07:49:17.592Z,59808
2017-06-15T07:50:29.841Z,64448
2017-06-15T07:51:42.087Z,61984
2017-06-15T07:52:54.633Z,64992
2017-06-15T07:54:06.900Z,69824
2017-06-15T07:55:19.175Z,73088
2017-06-15T07:56:31.747Z,72160
2017-06-15T07:57:43.998Z,75968
2017-06-15T07:58:56.238Z,75904
2017-06-15T08:00:08.788Z,77024
2017-06-15T08:01:21.057Z,78336
2017-06-15T08:02:33.326Z,75872
2017-06-15T08:03:45.847Z,76736
2017-06-15T08:04:58.386Z,79584
2017-06-15T08:06:10.638Z,82976
2017-06-15T08:07:23.213Z,80960
2017-06-15T08:08:35.808Z,80096
2017-06-15T08:09:48.354Z,74656
2017-06-15T08:11:00.597Z,76288
2017-06-15T08:12:13.143Z,77088
2017-06-15T08:13:25.719Z,68288
2017-06-15T08:14:38.255Z,70368
2017-06-15T08:15:50.826Z,75680
2017-06-15T08:17:03.351Z,86624
2017-06-15T08:18:15.302Z,76608
2017-06-15T08:19:27.573Z,83392
2017-06-15T08:20:39.859Z,87456
2017-06-15T08:21:52.387Z,86848
2017-06-15T08:23:04.631Z,69184
2017-06-15T08:24:16.281Z,79712
2017-06-15T08:25:28.864Z,80864
2017-06-15T08:26:41.443Z,77472
2017-06-15T08:27:53.989Z,78432
2017-06-15T08:29:06.235Z,78816
2017-06-15T08:30:18.807Z,78432
2017-06-15T08:31:31.369Z,81632
2017-06-15T08:32:43.922Z,82176
2017-06-15T08:33:56.490Z,82400
2017-06-15T08:35:09.069Z,83904
2017-06-15T08:36:21.039Z,89824
2017-06-15T08:37:33.581Z,89440
2017-06-15T08:38:45.830Z,88416
2017-06-15T08:39:58.098Z,88512
2017-06-15T08:41:10.648Z,90080
2017-06-15T08:42:22.915Z,90400
2017-06-15T08:43:35.166Z,93024
2017-06-15T08:44:47.732Z,86304
2017-06-15T08:45:59.983Z,88000
2017-06-15T08:47:12.570Z,90784
2017-06-15T08:48:25.141Z,94912
2017-06-15T08:49:37.409Z,91104
2017-06-15T08:50:49.658Z,90016
2017-06-15T08:52:02.282Z,91424
2017-06-15T08:53:14.832Z,92064
2017-06-15T08:54:27.374Z,90720
2017-06-15T08:55:39.966Z,84128
2017-06-15T08:56:52.547Z,81664
2017-06-15T08:58:05.132Z,82560
2017-06-15T08:59:17.685Z,77920
2017-06-15T09:00:30.251Z,80768
2017-06-15T09:01:42.825Z,77152
2017-06-15T09:02:55.070Z,80832
2017-06-15T09:04:07.341Z,81120
2017-06-15T09:05:19.586Z,80864
2017-06-15T09:06:31.550Z,82112
2017-06-15T09:07:44.133Z,73344
2017-06-15T09:08:56.717Z,79936
2017-06-15T09:10:09.271Z,80256
2017-06-15T09:11:21.526Z,84576
2017-06-15T09:12:34.089Z,80032
2017-06-15T09:13:46.668Z,72032
2017-06-15T09:14:58.930Z,75520
2017-06-15T09:16:11.520Z,75488
2017-06-15T09:17:23.771Z,71456
2017-06-15T09:18:36.313Z,71616
2017-06-15T09:19:48.859Z,72736
2017-06-15T09:21:01.409Z,71872
2017-06-15T09:22:13.983Z,69696
2017-06-15T09:23:26.555Z,72192
2017-06-15T09:24:39.100Z,76160
2017-06-15T09:25:51.672Z,74656
2017-06-15T09:27:03.941Z,81920
2017-06-15T09:28:16.230Z,73056
2017-06-15T09:29:28.456Z,79424
2017-06-15T09:30:41.001Z,79328
2017-06-15T09:31:53.247Z,74848
2017-06-15T09:33:05.793Z,75904
2017-06-15T09:34:18.339Z,76032
2017-06-15T09:35:30.285Z,75936
2017-06-15T09:36:42.815Z,76288
2017-06-15T09:37:55.369Z,78496
2017-06-15T09:39:07.952Z,80576
2017-06-15T09:40:20.215Z,80544
2017-06-15T09:41:32.481Z,79200
2017-06-15T09:42:45.067Z,78720
2017-06-15T09:43:57.382Z,79040
2017-06-15T09:45:09.906Z,75712
2017-06-15T09:46:22.449Z,71968
2017-06-15T09:47:35.012Z,74816
2017-06-15T09:48:47.261Z,78080
2017-06-15T09:49:59.518Z,75424
2017-06-15T09:51:11.807Z,79168
2017-06-15T09:52:24.028Z,78688
2017-06-15T09:53:36.578Z,79520
2017-06-15T09:54:48.836Z,80032
2017-06-15T09:56:01.421Z,82080
2017-06-15T09:57:13.667Z,82656
2017-06-15T09:58:26.207Z,81088
2017-06-15T09:59:38.760Z,78272
2017-06-15T10:00:51.325Z,80960
2017-06-15T10:02:03.874Z,83968
2017-06-15T10:03:15.846Z,84800
2017-06-15T10:04:28.087Z,88672
2017-06-15T10:05:40.676Z,91104
2017-06-15T10:06:52.959Z,88128
2017-06-15T10:08:04.900Z,83904
2017-06-15T10:09:16.849Z,82304
2017-06-15T10:10:29.422Z,79488
2017-06-15T10:11:41.688Z,80896
2017-06-15T10:12:54.241Z,80576
2017-06-15T10:14:06.501Z,84192
2017-06-15T10:15:18.753Z,82496
2017-06-15T10:16:31.324Z,78880
2017-06-15T10:17:43.895Z,80608
2017-06-15T10:18:56.466Z,82464
2017-06-15T10:20:08.708Z,82976
2017-06-15T10:21:20.961Z,85760
2017-06-15T10:22:33.529Z,87296
2017-06-15T10:23:46.101Z,86688
2017-06-15T10:24:58.368Z,88000
2017-06-15T10:26:10.035Z,86880
2017-06-15T10:27:22.613Z,84896
2017-06-15T10:28:35.172Z,83520
2017-06-15T10:29:47.729Z,84096
2017-06-15T10:31:00.300Z,82880
2017-06-15T10:32:12.543Z,79008
2017-06-15T10:33:25.117Z,82592
2017-06-15T10:34:37.707Z,86368
2017-06-15T10:35:50.256Z,89920
2017-06-15T10:37:02.801Z,92000
2017-06-15T10:38:15.351Z,91328
2017-06-15T10:39:27.922Z,88192
2017-06-15T10:40:40.190Z,86944
2017-06-15T10:41:52.781Z,87040
2017-06-15T10:43:05.056Z,86144
2017-06-15T10:44:17.632Z,83232
2017-06-15T10:45:30.194Z,84768
2017-06-15T10:46:42.719Z,88576
2017-06-15T10:47:55.265Z,89760
2017-06-15T10:49:07.866Z,91680
2017-06-15T10:50:20.150Z,89056
2017-06-15T10:51:32.682Z,89920
2017-06-15T10:52:44.952Z,89024
2017-06-15T10:53:56.922Z,84320
2017-06-15T10:55:09.183Z,85504
2017-06-15T10:56:21.766Z,87488
2017-06-15T10:57:34.033Z,83776
2017-06-15T10:58:46.578Z,83232
2017-06-15T10:59:59.123Z,81472
2017-06-15T11:01:11.723Z,81216
2017-06-15T11:02:23.991Z,81056
2017-06-15T11:03:36.514Z,80864
2017-06-15T11:04:49.084Z,79520
2017-06-15T11:06:01.632Z,80960
2017-06-15T11:07:14.216Z,82144
2017-06-15T11:08:26.199Z,79232
2017-06-15T11:09:38.158Z,79552
2017-06-15T11:10:50.739Z,81344
2017-06-15T11:12:03.009Z,81952
2017-06-15T11:13:15.547Z,79488
2017-06-15T11:14:28.100Z,78592
2017-06-15T11:15:40.348Z,75456
2017-06-15T11:16:52.592Z,84832
2017-06-15T11:18:04.562Z,81952
2017-06-15T11:19:16.852Z,76032
2017-06-15T11:20:29.150Z,80832
2017-06-15T11:21:41.704Z,76416
2017-06-15T11:22:53.972Z,74592
2017-06-15T11:24:06.495Z,74016
2017-06-15T11:25:18.766Z,76384
2017-06-15T11:26:31.329Z,70720
2017-06-15T11:27:43.884Z,67488
2017-06-15T11:28:56.454Z,70176
2017-06-15T11:30:08.714Z,70112
2017-06-15T11:31:21.297Z,73792
2017-06-15T11:32:33.905Z,71776
2017-06-15T11:33:46.555Z,68896
2017-06-15T11:34:59.134Z,66080
2017-06-15T11:36:11.732Z,70496
2017-06-15T11:37:23.700Z,69408
2017-06-15T11:38:36.272Z,72640
2017-06-15T11:39:48.839Z,71296
2017-06-15T11:41:01.413Z,66304
2017-06-15T11:42:13.659Z,75168
2017-06-15T11:43:25.948Z,73472
2017-06-15T11:44:38.194Z,67712
2017-06-15T11:45:50.765Z,67744
2017-06-15T11:47:03.319Z,68576
2017-06-15T11:48:15.886Z,68704
2017-06-15T11:49:28.459Z,68192
2017-06-15T11:50:41.009Z,69696
2017-06-15T11:51:53.295Z,64800
2017-06-15T11:53:05.869Z,59136
2017-06-15T11:54:18.444Z,61408
2017-06-15T11:55:30.711Z,67424
2017-06-15T11:56:43.258Z,65536
2017-06-15T11:57:55.503Z,60736
2017-06-15T11:59:07.784Z,63456
2017-06-15T12:00:20.405Z,62496
2017-06-15T12:01:32.968Z,63072
2017-06-15T12:02:45.540Z,59168
2017-06-15T12:03:58.107Z,64128
2017-06-15T12:05:10.653Z,66976
2017-06-15T12:06:23.199Z,66112
2017-06-15T12:07:35.765Z,60480
2017-06-15T12:08:48.033Z,60480
2017-06-15T12:10:00.288Z,61440
2017-06-15T12:11:12.537Z,62176
2017-06-15T12:12:24.803Z,62176
2017-06-15T12:13:37.053Z,67392
2017-06-15T12:14:49.620Z,68992
2017-06-15T12:16:02.166Z,58592
2017-06-15T12:17:14.412Z,59296
2017-06-15T12:18:26.661Z,61920
2017-06-15T12:19:38.904Z,64384
2017-06-15T12:20:51.450Z,64704
2017-06-15T12:22:04.017Z,65312
2017-06-15T12:23:16.296Z,65760
2017-06-15T12:24:28.863Z,68896
2017-06-15T12:25:41.409Z,67232
2017-06-15T12:26:53.997Z,61376
2017-06-15T12:28:06.243Z,60544
2017-06-15T12:29:18.800Z,63648
2017-06-15T12:30:31.369Z,62560
2017-06-15T12:31:43.913Z,64000
2017-06-15T12:32:56.177Z,62208
2017-06-15T12:34:08.735Z,62144
2017-06-15T12:35:21.294Z,59776
2017-06-15T12:36:33.550Z,58336
2017-06-15T12:37:46.110Z,56576
2017-06-15T12:38:58.665Z,59168
2017-06-15T12:40:11.258Z,58816
2017-06-15T12:41:23.231Z,59328
2017-06-15T12:42:35.776Z,55232
2017-06-15T12:43:48.298Z,53152
2017-06-15T12:45:00.864Z,48800
2017-06-15T12:46:13.420Z,52160
2017-06-15T12:47:25.988Z,49504
2017-06-15T12:48:38.559Z,55104
2017-06-15T12:49:51.133Z,53920
2017-06-15T12:51:03.699Z,56000
2017-06-15T12:52:16.273Z,53440
2017-06-15T12:53:28.544Z,52256
2017-06-15T12:54:41.090Z,52352
2017-06-15T12:55:53.660Z,51744
2017-06-15T12:57:05.903Z,50560
2017-06-15T12:58:18.445Z,48288
2017-06-15T12:59:30.442Z,47040
2017-06-15T13:00:42.990Z,49952
2017-06-15T13:01:55.566Z,50912
2017-06-15T13:03:08.129Z,52768
2017-06-15T13:04:20.682Z,50368
2017-06-15T13:05:33.249Z,47648
2017-06-15T13:06:45.799Z,48000
2017-06-15T13:07:58.369Z,46912
2017-06-15T13:09:10.936Z,48448
2017-06-15T13:10:23.474Z,47136
2017-06-15T13:11:36.050Z,46720
2017-06-15T13:12:48.299Z,47488
2017-06-15T13:14:00.842Z,46272
2017-06-15T13:15:13.116Z,44800
2017-06-15T13:16:25.662Z,45824
2017-06-15T13:17:37.636Z,45952
2017-06-15T13:18:50.233Z,46432
2017-06-15T13:20:02.820Z,44832
2017-06-15T13:21:15.067Z,43808
2017-06-15T13:22:27.301Z,46368
2017-06-15T13:23:39.865Z,46272
2017-06-15T13:24:52.386Z,44768
2017-06-15T13:26:04.630Z,45088
2017-06-15T13:27:16.876Z,45280
2017-06-15T13:28:29.427Z,48512
2017-06-15T13:29:41.674Z,51008
2017-06-15T13:30:54.259Z,51936
2017-06-15T13:32:06.819Z,52992
2017-06-15T13:33:19.105Z,53440
2017-06-15T13:34:31.405Z,55392
2017-06-15T13:35:43.946Z,50976
2017-06-15T13:36:56.472Z,51904
2017-06-15T13:38:08.738Z,47424
2017-06-15T13:39:20.968Z,50656
2017-06-15T13:40:33.548Z,48832
2017-06-15T13:41:46.119Z,48992
2017-06-15T13:42:58.348Z,48800
2017-06-15T13:44:10.898Z,47840
2017-06-15T13:45:23.442Z,50816
2017-06-15T13:46:36.009Z,49856
2017-06-15T13:47:48.609Z,50464
2017-06-15T13:49:01.181Z,49696
2017-06-15T13:50:13.465Z,50464
2017-06-15T13:51:25.761Z,52896
2017-06-15T13:52:38.307Z,50496
2017-06-15T13:53:50.560Z,47328
2017-06-15T13:55:02.212Z,45856
2017-06-15T13:56:14.778Z,42432
2017-06-15T13:57:26.744Z,41632
2017-06-15T13:58:39.294Z,43968
2017-06-15T13:59:51.243Z,42528
2017-06-15T14:01:03.804Z,44512
2017-06-15T14:02:16.349Z,44320
2017-06-15T14:03:28.606Z,41984
2017-06-15T14:04:41.202Z,43808
2017-06-15T14:05:53.770Z,44608
2017-06-15T14:07:06.340Z,42432
2017-06-15T14:08:18.908Z,42016
2017-06-15T14:09:31.464Z,44832
2017-06-15T14:10:43.725Z,44576
2017-06-15T14:11:55.974Z,46176
2017-06-15T14:13:08.520Z,46848
2017-06-15T14:14:21.061Z,46720
2017-06-15T14:15:33.615Z,41952
2017-06-15T14:16:45.868Z,40128
2017-06-15T14:17:58.425Z,39904
2017-06-15T14:19:10.980Z,41280
2017-06-15T14:20:23.571Z,38720
2017-06-15T14:21:36.118Z,36096
2017-06-15T14:22:48.342Z,34720
2017-06-15T14:24:00.614Z,31296
2017-06-15T14:25:13.180Z,34752
2017-06-15T14:26:25.704Z,34848
2017-06-15T14:27:37.947Z,31520
2017-06-15T14:28:50.217Z,32448
2017-06-15T14:30:02.758Z,31936
2017-06-15T14:31:14.404Z,32416
2017-06-15T14:32:26.954Z,32384
2017-06-15T14:33:39.519Z,30784
2017-06-15T14:34:52.046Z,32032
2017-06-15T14:36:04.272Z,27872
2017-06-15T14:37:16.857Z,31648
2017-06-15T14:38:29.091Z,33088
2017-06-15T14:39:41.333Z,32832
2017-06-15T14:40:53.902Z,33280
2017-06-15T14:42:06.448Z,33856
2017-06-15T14:43:18.996Z,33504
2017-06-15T14:44:31.266Z,34848
2017-06-15T14:45:43.814Z,30016
2017-06-15T14:46:56.385Z,13352
2017-06-15T14:48:08.634Z,13528
2017-06-15T14:49:21.199Z,14508
2017-06-15T14:50:33.449Z,11696
2017-06-15T14:51:45.994Z,11172
2017-06-15T14:52:58.565Z,10932
2017-06-15T14:54:11.122Z,10596
2017-06-15T14:55:23.355Z,10352
2017-06-15T14:56:35.927Z,10164
2017-06-15T14:57:48.164Z,10016
2017-06-15T14:59:00.085Z,9992
2017-06-15T15:00:12.328Z,9952
2017-06-15T15:01:24.867Z,9812
2017-06-15T15:02:37.107Z,9532
2017-06-15T15:03:49.649Z,9280
2017-06-15T15:05:01.878Z,9132
2017-06-15T15:06:14.440Z,9156
2017-06-15T15:07:27.004Z,9220
2017-06-15T15:08:39.235Z,9288
2017-06-15T15:09:51.471Z,9300
2017-06-15T15:11:03.720Z,9220
2017-06-15T15:12:16.275Z,9220
2017-06-15T15:13:27.912Z,9176
2017-06-15T15:14:40.462Z,9076
2017-06-15T15:15:52.662Z,8980
2017-06-15T15:17:05.212Z,8904
2017-06-15T15:18:17.741Z,9000
2017-06-15T15:19:30.288Z,9160
2017-06-15T15:20:42.524Z,9284
2017-06-15T15:21:55.083Z,9452
2017-06-15T15:23:07.634Z,9572
2017-06-15T15:24:19.857Z,9700
2017-06-15T15:25:32.100Z,9816
2017-06-15T15:26:44.642Z,10060
2017-06-15T15:27:56.870Z,10284
2017-06-15T15:29:09.138Z,10468
2017-06-15T15:30:21.687Z,10604
2017-06-15T15:31:34.279Z,10680
2017-06-15T15:32:46.526Z,10644
2017-06-15T15:33:58.475Z,10520
2017-06-15T15:35:10.991Z,10376
2017-06-15T15:36:23.211Z,10224
2017-06-15T15:37:35.713Z,10076
2017-06-15T15:38:48.273Z,9888
2017-06-15T15:40:00.526Z,9812
2017-06-15T15:41:12.764Z,9732
2017-06-15T15:42:25.321Z,9584
2017-06-15T15:43:37.593Z,9488
2017-06-15T15:44:50.151Z,9452
2017-06-15T15:46:02.384Z,9448
2017-06-15T15:47:14.628Z,9452
2017-06-15T15:48:26.865Z,9424
2017-06-15T15:49:39.100Z,9392
2017-06-15T15:50:51.339Z,9432
2017-06-15T15:52:03.860Z,9520
2017-06-15T15:53:16.407Z,9640
2017-06-15T15:54:28.951Z,9724
2017-06-15T15:55:41.201Z,9828
2017-06-15T15:56:53.423Z,9936
2017-06-15T15:58:05.664Z,10092
2017-06-15T15:59:17.892Z,10272
2017-06-15T16:00:30.157Z,10428